sensor_id;sensor_type;location;lat;lon;timestamp;pressure;altitude;pressure_sealevel;temperature;humidity
19736;BME280;32064;49.310;8.646;2023-09-19T00:00:57;100042.50;;;22.12;72.04
19736;BME280;32064;49.310;8.646;2023-09-19T00:03:23;100042.91;;;22.09;72.24
19736;BME280;32064;49.310;8.646;2023-09-19T00:05:50;100051.13;;;22.08;72.00
19736;BME280;32064;49.310;8.646;2023-09-19T00:08:15;100057.34;;;22.08;71.85
19736;BME280;32064;49.310;8.646;2023-09-19T00:10:41;100048.44;;;22.08;72.14
19736;BME280;32064;49.310;8.646;2023-09-19T00:13:07;100056.94;;;22.11;72.04
19736;BME280;32064;49.310;8.646;2023-09-19T00:15:43;100058.59;;;22.12;71.43
19736;BME280;32064;49.310;8.646;2023-09-19T00:18:13;100062.75;;;22.15;71.74
19736;BME280;32064;49.310;8.646;2023-09-19T00:20:41;100058.41;;;22.14;72.32
19736;BME280;32064;49.310;8.646;2023-09-19T00:23:08;100066.06;;;22.17;72.44
19736;BME280;32064;49.310;8.646;2023-09-19T00:25:37;100063.22;;;22.18;72.52
19736;BME280;32064;49.310;8.646;2023-09-19T00:28:04;100062.66;;;22.23;73.19
19736;BME280;32064;49.310;8.646;2023-09-19T00:30:29;100061.22;;;22.27;72.80
19736;BME280;32064;49.310;8.646;2023-09-19T00:32:55;100070.75;;;22.30;72.28
19736;BME280;32064;49.310;8.646;2023-09-19T00:35:21;100062.53;;;22.31;72.03
19736;BME280;32064;49.310;8.646;2023-09-19T00:37:50;100066.84;;;22.32;72.12
19736;BME280;32064;49.310;8.646;2023-09-19T00:40:16;100067.06;;;22.31;72.37
19736;BME280;32064;49.310;8.646;2023-09-19T00:42:43;100064.56;;;22.29;71.93
19736;BME280;32064;49.310;8.646;2023-09-19T00:45:10;100072.59;;;22.29;71.91
19736;BME280;32064;49.310;8.646;2023-09-19T00:47:44;100082.06;;;22.25;72.28
19736;BME280;32064;49.310;8.646;2023-09-19T00:50:11;100086.38;;;22.26;72.41
19736;BME280;32064;49.310;8.646;2023-09-19T00:52:40;100080.78;;;22.21;72.33
19736;BME280;32064;49.310;8.646;2023-09-19T00:55:11;100086.34;;;22.19;71.58
19736;BME280;32064;49.310;8.646;2023-09-19T00:57:39;100088.16;;;22.19;72.23
19736;BME280;32064;49.310;8.646;2023-09-19T01:00:06;100095.38;;;22.18;72.24
19736;BME280;32064;49.310;8.646;2023-09-19T01:02:34;100085.22;;;22.14;73.16
19736;BME280;32064;49.310;8.646;2023-09-19T01:05:00;100093.25;;;22.14;73.14
19736;BME280;32064;49.310;8.646;2023-09-19T01:07:29;100093.81;;;22.09;72.32
19736;BME280;32064;49.310;8.646;2023-09-19T01:10:00;100098.53;;;22.07;72.48
19736;BME280;32064;49.310;8.646;2023-09-19T01:15:43;100103.38;;;21.97;73.53
19736;BME280;32064;49.310;8.646;2023-09-19T01:18:27;100108.91;;;21.95;73.97
19736;BME280;32064;49.310;8.646;2023-09-19T01:21:11;100102.91;;;21.93;73.96
19736;BME280;32064;49.310;8.646;2023-09-19T01:29:26;100101.09;;;21.94;74.49
19736;BME280;32064;49.310;8.646;2023-09-19T01:32:03;100092.91;;;22.02;73.73
19736;BME280;32064;49.310;8.646;2023-09-19T01:34:53;100099.66;;;21.98;73.35
19736;BME280;32064;49.310;8.646;2023-09-19T01:37:20;100104.91;;;22.06;73.29
19736;BME280;32064;49.310;8.646;2023-09-19T01:40:00;100098.75;;;21.91;73.62
19736;BME280;32064;49.310;8.646;2023-09-19T01:42:48;100104.31;;;21.89;73.77
19736;BME280;32064;49.310;8.646;2023-09-19T01:45:24;100105.34;;;21.88;73.16
19736;BME280;32064;49.310;8.646;2023-09-19T01:47:53;100101.81;;;21.88;73.89
19736;BME280;32064;49.310;8.646;2023-09-19T01:50:32;100104.88;;;21.85;73.94
19736;BME280;32064;49.310;8.646;2023-09-19T01:53:15;100118.84;;;21.80;74.17
19736;BME280;32064;49.310;8.646;2023-09-19T01:55:45;100109.22;;;21.86;73.94
19736;BME280;32064;49.310;8.646;2023-09-19T01:58:33;100117.00;;;21.81;74.13
19736;BME280;32064;49.310;8.646;2023-09-19T02:01:00;100129.06;;;21.91;73.84
19736;BME280;32064;49.310;8.646;2023-09-19T02:03:27;100121.66;;;21.93;73.93
19736;BME280;32064;49.310;8.646;2023-09-19T02:05:54;100127.50;;;21.97;73.89
19736;BME280;32064;49.310;8.646;2023-09-19T02:08:21;100122.97;;;21.97;74.02
19736;BME280;32064;49.310;8.646;2023-09-19T02:10:49;100136.16;;;21.99;73.80
19736;BME280;32064;49.310;8.646;2023-09-19T02:13:19;100125.00;;;21.95;73.86
19736;BME280;32064;49.310;8.646;2023-09-19T02:15:45;100136.16;;;21.99;73.79
19736;BME280;32064;49.310;8.646;2023-09-19T02:18:12;100145.66;;;22.02;74.10
19736;BME280;32064;49.310;8.646;2023-09-19T02:20:38;100133.38;;;22.07;73.48
19736;BME280;32064;49.310;8.646;2023-09-19T02:23:03;100143.91;;;22.09;73.45
19736;BME280;32064;49.310;8.646;2023-09-19T02:25:29;100152.38;;;22.12;74.01
19736;BME280;32064;49.310;8.646;2023-09-19T02:27:56;100144.34;;;22.12;74.60
19736;BME280;32064;49.310;8.646;2023-09-19T02:30:23;100150.97;;;22.16;74.56
19736;BME280;32064;49.310;8.646;2023-09-19T02:32:51;100139.44;;;22.16;74.39
19736;BME280;32064;49.310;8.646;2023-09-19T02:35:16;100150.97;;;22.16;74.41
19736;BME280;32064;49.310;8.646;2023-09-19T02:37:45;100152.59;;;22.11;73.91
19736;BME280;32064;49.310;8.646;2023-09-19T02:40:11;100157.38;;;22.15;73.53
19736;BME280;32064;49.310;8.646;2023-09-19T02:42:53;100164.59;;;22.15;74.39
19736;BME280;32064;49.310;8.646;2023-09-19T02:45:19;100162.19;;;22.20;73.88
19736;BME280;32064;49.310;8.646;2023-09-19T02:47:45;100160.34;;;22.21;73.72
19736;BME280;32064;49.310;8.646;2023-09-19T02:50:11;100164.25;;;22.18;73.60
19736;BME280;32064;49.310;8.646;2023-09-19T02:52:37;100167.34;;;22.22;73.79
19736;BME280;32064;49.310;8.646;2023-09-19T02:55:03;100167.75;;;22.18;73.85
19736;BME280;32064;49.310;8.646;2023-09-19T02:57:31;100175.78;;;22.18;73.71
19736;BME280;32064;49.310;8.646;2023-09-19T02:59:59;100164.06;;;22.19;74.32
19736;BME280;32064;49.310;8.646;2023-09-19T03:02:25;100170.03;;;22.22;74.04
19736;BME280;32064;49.310;8.646;2023-09-19T03:04:53;100172.72;;;22.22;73.85
19736;BME280;32064;49.310;8.646;2023-09-19T03:07:19;100172.41;;;22.16;73.96
19736;BME280;32064;49.310;8.646;2023-09-19T03:09:44;100165.72;;;22.21;74.03
19736;BME280;32064;49.310;8.646;2023-09-19T03:12:10;100167.19;;;22.23;73.69
19736;BME280;32064;49.310;8.646;2023-09-19T03:14:36;100171.34;;;22.26;74.03
19736;BME280;32064;49.310;8.646;2023-09-19T03:17:02;100182.44;;;22.23;74.27
19736;BME280;32064;49.310;8.646;2023-09-19T03:19:30;100174.41;;;22.23;74.07
19736;BME280;32064;49.310;8.646;2023-09-19T03:21:58;100182.63;;;22.21;72.99
19736;BME280;32064;49.310;8.646;2023-09-19T03:24:24;100171.72;;;22.23;73.75
19736;BME280;32064;49.310;8.646;2023-09-19T03:26:49;100180.22;;;22.26;74.49
19736;BME280;32064;49.310;8.646;2023-09-19T03:29:14;100194.81;;;22.24;73.67
19736;BME280;32064;49.310;8.646;2023-09-19T03:31:40;100191.75;;;22.27;74.11
19736;BME280;32064;49.310;8.646;2023-09-19T03:34:06;100200.25;;;22.30;73.51
19736;BME280;32064;49.310;8.646;2023-09-19T03:36:34;100198.59;;;22.29;72.44
19736;BME280;32064;49.310;8.646;2023-09-19T03:39:01;100201.91;;;22.31;73.26
19736;BME280;32064;49.310;8.646;2023-09-19T03:41:26;100203.78;;;22.31;73.24
19736;BME280;32064;49.310;8.646;2023-09-19T03:43:52;100202.31;;;22.28;72.78
19736;BME280;32064;49.310;8.646;2023-09-19T03:46:18;100200.44;;;22.29;72.83
19736;BME280;32064;49.310;8.646;2023-09-19T03:48:43;100201.44;;;22.28;73.50
19736;BME280;32064;49.310;8.646;2023-09-19T03:51:09;100211.81;;;22.31;72.69
19736;BME280;32064;49.310;8.646;2023-09-19T03:53:34;100202.31;;;22.28;72.91
19736;BME280;32064;49.310;8.646;2023-09-19T03:56:00;100208.88;;;22.26;73.68
19736;BME280;32064;49.310;8.646;2023-09-19T03:58:26;100209.69;;;22.26;73.81
19736;BME280;32064;49.310;8.646;2023-09-19T04:00:55;100208.66;;;22.27;73.26
19736;BME280;32064;49.310;8.646;2023-09-19T04:03:20;100214.50;;;22.31;73.67
19736;BME280;32064;49.310;8.646;2023-09-19T04:05:46;100209.69;;;22.26;73.35
19736;BME280;32064;49.310;8.646;2023-09-19T04:08:15;100211.72;;;22.24;72.95
19736;BME280;32064;49.310;8.646;2023-09-19T04:10:43;100215.44;;;22.23;73.60
19736;BME280;32064;49.310;8.646;2023-09-19T04:13:09;100219.75;;;22.24;73.10
19736;BME280;32064;49.310;8.646;2023-09-19T04:15:35;100215.22;;;22.25;72.91
19736;BME280;32064;49.310;8.646;2023-09-19T04:18:01;100214.13;;;22.19;73.53
19736;BME280;32064;49.310;8.646;2023-09-19T04:20:28;100222.38;;;22.17;72.69
19736;BME280;32064;49.310;8.646;2023-09-19T04:22:53;100220.03;;;22.14;73.12
19736;BME280;32064;49.310;8.646;2023-09-19T04:25:20;100227.44;;;22.12;72.85
19736;BME280;32064;49.310;8.646;2023-09-19T04:27:46;100232.78;;;22.12;73.51
19736;BME280;32064;49.310;8.646;2023-09-19T04:30:11;100233.00;;;22.11;73.33
19736;BME280;32064;49.310;8.646;2023-09-19T04:32:41;100239.34;;;22.10;72.55
19736;BME280;32064;49.310;8.646;2023-09-19T04:35:08;100233.16;;;22.09;72.42
19736;BME280;32064;49.310;8.646;2023-09-19T04:37:38;100229.00;;;22.07;72.76
19736;BME280;32064;49.310;8.646;2023-09-19T04:40:06;100244.06;;;22.08;72.66
19736;BME280;32064;49.310;8.646;2023-09-19T04:42:31;100239.94;;;22.05;72.72
19736;BME280;32064;49.310;8.646;2023-09-19T04:44:57;100256.34;;;22.02;72.88
19736;BME280;32064;49.310;8.646;2023-09-19T04:47:25;100250.53;;;21.98;72.58
19736;BME280;32064;49.310;8.646;2023-09-19T04:49:50;100249.25;;;21.94;72.83
19736;BME280;32064;49.310;8.646;2023-09-19T04:52:15;100254.34;;;21.89;71.91
19736;BME280;32064;49.310;8.646;2023-09-19T04:54:41;100256.56;;;21.86;72.18
19736;BME280;32064;49.310;8.646;2023-09-19T04:57:06;100259.41;;;21.84;72.03
19736;BME280;32064;49.310;8.646;2023-09-19T04:59:32;100260.59;;;21.82;72.84
19736;BME280;32064;49.310;8.646;2023-09-19T05:01:58;100265.22;;;21.73;72.76
19736;BME280;32064;49.310;8.646;2023-09-19T05:04:23;100261.88;;;21.71;72.26
19736;BME280;32064;49.310;8.646;2023-09-19T05:06:49;100260.25;;;21.70;72.85
19736;BME280;32064;49.310;8.646;2023-09-19T05:09:14;100261.06;;;21.70;72.27
19736;BME280;32064;49.310;8.646;2023-09-19T05:11:40;100258.75;;;21.67;72.71
19736;BME280;32064;49.310;8.646;2023-09-19T05:14:06;100264.31;;;21.66;72.41
19736;BME280;32064;49.310;8.646;2023-09-19T05:16:31;100264.69;;;21.63;72.72
19736;BME280;32064;49.310;8.646;2023-09-19T05:18:57;100265.88;;;21.60;73.26
19736;BME280;32064;49.310;8.646;2023-09-19T05:21:25;100272.78;;;21.55;72.49
19736;BME280;32064;49.310;8.646;2023-09-19T05:23:54;100276.09;;;21.57;72.67
19736;BME280;32064;49.310;8.646;2023-09-19T05:26:19;100284.13;;;21.57;72.62
19736;BME280;32064;49.310;8.646;2023-09-19T05:28:45;100284.13;;;21.57;72.30
19736;BME280;32064;49.310;8.646;2023-09-19T05:31:10;100283.97;;;21.58;72.48
19736;BME280;32064;49.310;8.646;2023-09-19T05:33:35;100292.53;;;21.53;72.08
19736;BME280;32064;49.310;8.646;2023-09-19T05:36:01;100289.84;;;21.53;72.83
19736;BME280;32064;49.310;8.646;2023-09-19T05:38:26;100291.16;;;21.58;72.44
19736;BME280;32064;49.310;8.646;2023-09-19T05:40:52;100299.81;;;21.60;73.06
19736;BME280;32064;49.310;8.646;2023-09-19T05:43:19;100308.06;;;21.58;72.75
19736;BME280;32064;49.310;8.646;2023-09-19T05:45:44;100302.88;;;21.57;73.03
19736;BME280;32064;49.310;8.646;2023-09-19T05:48:14;100296.81;;;21.63;73.21
19736;BME280;32064;49.310;8.646;2023-09-19T05:50:41;100303.09;;;21.70;73.07
19736;BME280;32064;49.310;8.646;2023-09-19T05:53:07;100306.44;;;21.72;73.24
19736;BME280;32064;49.310;8.646;2023-09-19T05:55:33;100302.56;;;21.74;72.02
19736;BME280;32064;49.310;8.646;2023-09-19T05:57:59;100312.06;;;21.77;72.47
19736;BME280;32064;49.310;8.646;2023-09-19T06:00:25;100312.06;;;21.77;72.41
19736;BME280;32064;49.310;8.646;2023-09-19T06:02:52;100312.34;;;21.82;72.29
19736;BME280;32064;49.310;8.646;2023-09-19T06:05:18;100316.50;;;21.85;71.97
19736;BME280;32064;49.310;8.646;2023-09-19T06:07:45;100315.66;;;21.84;70.98
19736;BME280;32064;49.310;8.646;2023-09-19T06:10:10;100320.66;;;21.87;71.74
19736;BME280;32064;49.310;8.646;2023-09-19T06:12:40;100311.63;;;21.88;71.19
19736;BME280;32064;49.310;8.646;2023-09-19T06:15:06;100322.44;;;21.95;71.84
19736;BME280;32064;49.310;8.646;2023-09-19T06:17:34;100326.59;;;21.97;71.00
19736;BME280;32064;49.310;8.646;2023-09-19T06:20:06;100324.06;;;21.96;71.55
19736;BME280;32064;49.310;8.646;2023-09-19T06:22:42;100338.59;;;22.02;71.97
19736;BME280;32064;49.310;8.646;2023-09-19T06:25:12;100331.88;;;22.06;71.33
19736;BME280;32064;49.310;8.646;2023-09-19T06:27:44;100339.16;;;22.12;70.93
19736;BME280;32064;49.310;8.646;2023-09-19T06:30:11;100351.03;;;22.17;70.15
19736;BME280;32064;49.310;8.646;2023-09-19T06:32:40;100347.16;;;22.20;70.15
19736;BME280;32064;49.310;8.646;2023-09-19T06:35:10;100355.63;;;22.24;70.22
19736;BME280;32064;49.310;8.646;2023-09-19T06:37:37;100354.44;;;22.26;70.75
19736;BME280;32064;49.310;8.646;2023-09-19T06:42:33;100359.53;;;22.21;70.71
19736;BME280;32064;49.310;8.646;2023-09-19T06:44:59;100355.94;;;22.29;69.65
19736;BME280;32064;49.310;8.646;2023-09-19T06:47:24;100363.38;;;22.33;69.53
19736;BME280;32064;49.310;8.646;2023-09-19T06:49:51;100359.50;;;22.36;69.34
19736;BME280;32064;49.310;8.646;2023-09-19T06:52:17;100366.34;;;22.38;70.27
19736;BME280;32064;49.310;8.646;2023-09-19T06:54:46;100369.03;;;22.38;69.42
19736;BME280;32064;49.310;8.646;2023-09-19T06:57:15;100368.94;;;22.47;69.62
19736;BME280;32064;49.310;8.646;2023-09-19T06:59:41;100376.91;;;22.55;69.72
19736;BME280;32064;49.310;8.646;2023-09-19T07:02:06;100378.94;;;22.68;70.09
19736;BME280;32064;49.310;8.646;2023-09-19T07:04:32;100382.78;;;22.80;69.84
19736;BME280;32064;49.310;8.646;2023-09-19T07:06:58;100382.84;;;22.86;69.46
19736;BME280;32064;49.310;8.646;2023-09-19T07:09:23;100383.88;;;23.00;69.23
19736;BME280;32064;49.310;8.646;2023-09-19T07:11:49;100387.16;;;23.17;69.29
19736;BME280;32064;49.310;8.646;2023-09-19T07:14:16;100387.31;;;23.30;69.31
19736;BME280;32064;49.310;8.646;2023-09-19T07:16:41;100387.09;;;23.53;69.55
19736;BME280;32064;49.310;8.646;2023-09-19T07:19:09;100389.44;;;23.78;68.78
19736;BME280;32064;49.310;8.646;2023-09-19T07:21:35;100399.56;;;24.04;69.65
19736;BME280;32064;49.310;8.646;2023-09-19T07:24:07;100398.50;;;24.33;68.27
19736;BME280;32064;49.310;8.646;2023-09-19T07:26:33;100401.75;;;24.57;67.82
19736;BME280;32064;49.310;8.646;2023-09-19T07:28:58;100402.22;;;24.67;67.44
19736;BME280;32064;49.310;8.646;2023-09-19T07:31:24;100408.50;;;24.81;66.06
19736;BME280;32064;49.310;8.646;2023-09-19T07:33:50;100407.72;;;24.94;64.94
19736;BME280;32064;49.310;8.646;2023-09-19T07:36:16;100414.13;;;24.93;63.47
19736;BME280;32064;49.310;8.646;2023-09-19T07:38:41;100419.25;;;24.74;62.93
19736;BME280;32064;49.310;8.646;2023-09-19T07:41:08;100421.94;;;24.74;62.56
19736;BME280;32064;49.310;8.646;2023-09-19T07:43:35;100423.59;;;24.82;62.47
19736;BME280;32064;49.310;8.646;2023-09-19T07:46:07;100424.97;;;24.64;61.62
19736;BME280;32064;49.310;8.646;2023-09-19T07:48:35;100426.47;;;24.74;61.48
19736;BME280;32064;49.310;8.646;2023-09-19T07:51:08;100427.00;;;24.56;61.07
19736;BME280;32064;49.310;8.646;2023-09-19T07:53:36;100426.41;;;24.60;61.34
19736;BME280;32064;49.310;8.646;2023-09-19T07:56:06;100437.75;;;24.56;59.29
19736;BME280;32064;49.310;8.646;2023-09-19T07:58:33;100432.09;;;24.79;60.73
19736;BME280;32064;49.310;8.646;2023-09-19T08:01:06;100441.53;;;25.09;59.67
19736;BME280;32064;49.310;8.646;2023-09-19T08:03:35;100436.25;;;25.36;59.94
19736;BME280;32064;49.310;8.646;2023-09-19T08:06:03;100436.13;;;25.77;59.89
19736;BME280;32064;49.310;8.646;2023-09-19T08:08:29;100448.78;;;25.84;58.73
19736;BME280;32064;49.310;8.646;2023-09-19T08:10:55;100447.16;;;26.16;58.75
19736;BME280;32064;49.310;8.646;2023-09-19T08:13:25;100447.94;;;26.36;57.67
19736;BME280;32064;49.310;8.646;2023-09-19T08:15:51;100450.59;;;26.63;57.05
19736;BME280;32064;49.310;8.646;2023-09-19T08:18:18;100448.44;;;26.92;57.03
19736;BME280;32064;49.310;8.646;2023-09-19T08:20:51;100453.91;;;26.78;52.36
19736;BME280;32064;49.310;8.646;2023-09-19T08:23:17;100451.72;;;27.00;55.01
19736;BME280;32064;49.310;8.646;2023-09-19T08:25:45;100459.59;;;27.08;54.00
19736;BME280;32064;49.310;8.646;2023-09-19T08:28:11;100472.06;;;27.03;54.40
19736;BME280;32064;49.310;8.646;2023-09-19T08:30:37;100456.53;;;26.92;53.47
19736;BME280;32064;49.310;8.646;2023-09-19T08:33:05;100462.94;;;27.04;52.49
19736;BME280;32064;49.310;8.646;2023-09-19T08:35:32;100458.06;;;27.26;53.74
19736;BME280;32064;49.310;8.646;2023-09-19T08:38:01;100464.09;;;27.28;52.94
19736;BME280;32064;49.310;8.646;2023-09-19T08:40:32;100458.94;;;27.26;51.83
19736;BME280;32064;49.310;8.646;2023-09-19T08:43:01;100472.47;;;27.13;52.80
19736;BME280;32064;49.310;8.646;2023-09-19T08:45:26;100481.19;;;27.22;51.87
19736;BME280;32064;49.310;8.646;2023-09-19T08:48:23;100476.06;;;26.94;50.18
19736;BME280;32064;49.310;8.646;2023-09-19T08:51:18;100469.81;;;27.00;51.41
19736;BME280;32064;49.310;8.646;2023-09-19T08:53:51;100478.78;;;26.80;50.58
19736;BME280;32064;49.310;8.646;2023-09-19T08:56:18;100468.50;;;27.09;51.65
19736;BME280;32064;49.310;8.646;2023-09-19T08:58:51;100474.28;;;27.26;51.26
19736;BME280;32064;49.310;8.646;2023-09-19T09:01:20;100469.22;;;27.43;49.81
19736;BME280;32064;49.310;8.646;2023-09-19T09:03:53;100475.94;;;27.65;49.24
19736;BME280;32064;49.310;8.646;2023-09-19T09:06:20;100467.13;;;27.45;49.02
19736;BME280;32064;49.310;8.646;2023-09-19T09:08:46;100463.78;;;27.49;48.53
19736;BME280;32064;49.310;8.646;2023-09-19T09:11:13;100475.03;;;27.46;48.52
19736;BME280;32064;49.310;8.646;2023-09-19T09:13:40;100474.50;;;27.24;48.36
19736;BME280;32064;49.310;8.646;2023-09-19T09:16:07;100478.06;;;27.12;47.89
19736;BME280;32064;49.310;8.646;2023-09-19T09:18:33;100472.25;;;27.21;47.63
19736;BME280;32064;49.310;8.646;2023-09-19T09:20:59;100472.97;;;27.42;47.56
19736;BME280;32064;49.310;8.646;2023-09-19T09:23:26;100480.50;;;27.65;47.89
19736;BME280;32064;49.310;8.646;2023-09-19T09:25:55;100477.63;;;27.98;47.51
19736;BME280;32064;49.310;8.646;2023-09-19T09:28:26;100482.50;;;27.83;46.56
19736;BME280;32064;49.310;8.646;2023-09-19T09:30:52;100485.53;;;27.61;47.33
19736;BME280;32064;49.310;8.646;2023-09-19T09:33:18;100481.91;;;27.81;45.91
19736;BME280;32064;49.310;8.646;2023-09-19T09:35:54;100477.38;;;27.68;47.09
19736;BME280;32064;49.310;8.646;2023-09-19T09:38:26;100486.63;;;27.53;45.17
19736;BME280;32064;49.310;8.646;2023-09-19T09:40:59;100477.25;;;27.18;45.48
19736;BME280;32064;49.310;8.646;2023-09-19T09:49:00;100476.53;;;27.36;45.55
19736;BME280;32064;49.310;8.646;2023-09-19T09:51:49;100482.41;;;27.64;44.67
19736;BME280;32064;49.310;8.646;2023-09-19T09:54:28;100478.91;;;28.39;45.00
19736;BME280;32064;49.310;8.646;2023-09-19T09:57:05;100480.34;;;29.22;44.29
19736;BME280;32064;49.310;8.646;2023-09-19T09:59:53;100480.06;;;29.72;42.27
19736;BME280;32064;49.310;8.646;2023-09-19T10:02:27;100475.50;;;29.72;42.15
19736;BME280;32064;49.310;8.646;2023-09-19T10:04:59;100475.00;;;30.29;42.48
19736;BME280;32064;49.310;8.646;2023-09-19T10:07:33;100476.25;;;30.74;42.35
19736;BME280;32064;49.310;8.646;2023-09-19T10:10:02;100466.69;;;31.52;41.18
19736;BME280;32064;49.310;8.646;2023-09-19T10:12:47;100475.50;;;32.22;40.09
19736;BME280;32064;49.310;8.646;2023-09-19T10:15:18;100472.84;;;33.04;39.69
19736;BME280;32064;49.310;8.646;2023-09-19T10:17:46;100471.06;;;33.64;38.36
19736;BME280;32064;49.310;8.646;2023-09-19T10:20:14;100466.44;;;34.39;37.41
19736;BME280;32064;49.310;8.646;2023-09-19T10:23:03;100468.94;;;34.99;36.88
19736;BME280;32064;49.310;8.646;2023-09-19T10:25:36;100466.28;;;35.24;35.47
19736;BME280;32064;49.310;8.646;2023-09-19T10:28:02;100462.81;;;35.75;35.44
19736;BME280;32064;49.310;8.646;2023-09-19T10:30:29;100463.34;;;36.33;34.22
19736;BME280;32064;49.310;8.646;2023-09-19T10:33:01;100466.03;;;36.64;32.55
19736;BME280;32064;49.310;8.646;2023-09-19T10:35:27;100468.41;;;36.86;32.98
19736;BME280;32064;49.310;8.646;2023-09-19T10:37:55;100458.97;;;37.13;31.91
19736;BME280;32064;49.310;8.646;2023-09-19T10:40:22;100464.13;;;36.59;32.03
19736;BME280;32064;49.310;8.646;2023-09-19T10:43:01;100461.00;;;36.92;31.44
19736;BME280;32064;49.310;8.646;2023-09-19T10:45:30;100457.56;;;36.60;30.53
19736;BME280;32064;49.310;8.646;2023-09-19T10:47:57;100449.97;;;35.70;30.86
19736;BME280;32064;49.310;8.646;2023-09-19T10:50:23;100449.97;;;35.60;31.36
19736;BME280;32064;49.310;8.646;2023-09-19T10:52:50;100454.63;;;36.06;30.50
19736;BME280;32064;49.310;8.646;2023-09-19T10:55:24;100455.69;;;35.89;30.77
19736;BME280;32064;49.310;8.646;2023-09-19T10:57:50;100457.84;;;36.44;30.54
19736;BME280;32064;49.310;8.646;2023-09-19T11:00:17;100456.47;;;37.16;29.84
19736;BME280;32064;49.310;8.646;2023-09-19T11:05:40;100451.97;;;37.75;28.00
19736;BME280;32064;49.310;8.646;2023-09-19T11:08:09;100453.44;;;37.62;28.78
19736;BME280;32064;49.310;8.646;2023-09-19T11:10:46;100451.06;;;37.06;29.41
19736;BME280;32064;49.310;8.646;2023-09-19T11:13:28;100438.38;;;36.45;28.92
19736;BME280;32064;49.310;8.646;2023-09-19T11:24:27;100437.88;;;33.50;31.56
19736;BME280;32064;49.310;8.646;2023-09-19T11:27:12;100432.53;;;33.34;30.06
19736;BME280;32064;49.310;8.646;2023-09-19T11:29:42;100429.94;;;33.22;32.06
19736;BME280;32064;49.310;8.646;2023-09-19T11:32:07;100428.31;;;32.77;31.89
19736;BME280;32064;49.310;8.646;2023-09-19T11:34:42;100420.97;;;32.38;32.08
19736;BME280;32064;49.310;8.646;2023-09-19T11:39:37;100418.88;;;31.56;33.18
19736;BME280;32064;49.310;8.646;2023-09-19T11:42:42;100412.88;;;31.25;33.15
19736;BME280;32064;49.310;8.646;2023-09-19T11:48:06;100405.09;;;30.77;34.45
19736;BME280;32064;49.310;8.646;2023-09-19T11:50:33;100408.00;;;30.58;34.42
19736;BME280;32064;49.310;8.646;2023-09-19T11:53:00;100406.38;;;30.57;33.51
19736;BME280;32064;49.310;8.646;2023-09-19T11:55:28;100404.69;;;30.56;34.35
19736;BME280;32064;49.310;8.646;2023-09-19T11:57:56;100406.47;;;30.51;35.37
19736;BME280;32064;49.310;8.646;2023-09-19T12:00:22;100411.59;;;30.35;35.42
19736;BME280;32064;49.310;8.646;2023-09-19T12:02:50;100396.72;;;30.38;34.92
19736;BME280;32064;49.310;8.646;2023-09-19T12:05:28;100397.41;;;30.33;34.34
19736;BME280;32064;49.310;8.646;2023-09-19T12:07:54;100397.16;;;30.47;34.66
19736;BME280;32064;49.310;8.646;2023-09-19T12:10:20;100392.22;;;30.32;34.76
19736;BME280;32064;49.310;8.646;2023-09-19T12:12:48;100401.63;;;30.53;35.19
19736;BME280;32064;49.310;8.646;2023-09-19T12:15:14;100389.66;;;30.65;34.15
19736;BME280;32064;49.310;8.646;2023-09-19T12:17:41;100387.38;;;30.74;34.20
19736;BME280;32064;49.310;8.646;2023-09-19T12:20:10;100383.38;;;30.77;34.20
19736;BME280;32064;49.310;8.646;2023-09-19T12:22:43;100394.00;;;30.78;33.22
19736;BME280;32064;49.310;8.646;2023-09-19T12:25:09;100379.25;;;30.74;34.09
19736;BME280;32064;49.310;8.646;2023-09-19T12:27:48;100377.75;;;30.67;34.16
19736;BME280;32064;49.310;8.646;2023-09-19T12:30:18;100370.84;;;30.76;34.53
19736;BME280;32064;49.310;8.646;2023-09-19T12:32:44;100375.56;;;30.40;34.55
19736;BME280;32064;49.310;8.646;2023-09-19T12:35:27;100362.69;;;30.47;35.22
19736;BME280;32064;49.310;8.646;2023-09-19T12:37:54;100367.59;;;30.62;34.98
19736;BME280;32064;49.310;8.646;2023-09-19T12:40:21;100365.47;;;30.64;35.18
19736;BME280;32064;49.310;8.646;2023-09-19T12:42:54;100359.69;;;30.60;35.12
19736;BME280;32064;49.310;8.646;2023-09-19T12:45:32;100359.59;;;30.55;35.02
19736;BME280;32064;49.310;8.646;2023-09-19T12:51:02;100354.97;;;30.56;34.24
19736;BME280;32064;49.310;8.646;2023-09-19T12:53:33;100360.03;;;30.64;34.08
19736;BME280;32064;49.310;8.646;2023-09-19T12:56:01;100349.31;;;30.57;34.60
19736;BME280;32064;49.310;8.646;2023-09-19T12:58:26;100359.34;;;30.57;35.04
19736;BME280;32064;49.310;8.646;2023-09-19T13:00:55;100351.00;;;30.47;35.28
19736;BME280;32064;49.310;8.646;2023-09-19T13:05:55;100352.22;;;30.15;34.97
19736;BME280;32064;49.310;8.646;2023-09-19T13:08:31;100345.38;;;30.25;35.43
19736;BME280;32064;49.310;8.646;2023-09-19T13:13:46;100341.91;;;30.17;35.36
19736;BME280;32064;49.310;8.646;2023-09-19T13:16:20;100343.13;;;30.22;34.87
19736;BME280;32064;49.310;8.646;2023-09-19T13:18:54;100346.56;;;29.93;34.53
19736;BME280;32064;49.310;8.646;2023-09-19T13:21:32;100337.94;;;29.85;34.82
19736;BME280;32064;49.310;8.646;2023-09-19T13:24:22;100333.47;;;29.67;35.08
19736;BME280;32064;49.310;8.646;2023-09-19T13:26:55;100333.47;;;29.67;36.19
19736;BME280;32064;49.310;8.646;2023-09-19T13:29:21;100326.03;;;29.74;35.65
19736;BME280;32064;49.310;8.646;2023-09-19T13:31:51;100326.16;;;29.67;35.87
19736;BME280;32064;49.310;8.646;2023-09-19T13:34:20;100329.41;;;29.58;36.08
19736;BME280;32064;49.310;8.646;2023-09-19T13:36:46;100326.00;;;29.62;35.94
19736;BME280;32064;49.310;8.646;2023-09-19T13:39:14;100329.72;;;29.38;35.40
19736;BME280;32064;49.310;8.646;2023-09-19T13:41:45;100329.16;;;29.36;36.34